sensor_id;sensor_type;location;lat;lon;timestamp;temperature;humidity
45096;DHT22;30858;51.108;8.068;2022-12-18T00:02:11;-10.40;99.90
45096;DHT22;30858;51.108;8.068;2022-12-18T00:04:37;-10.50;99.90
45096;DHT22;30858;51.108;8.068;2022-12-18T00:07:02;-10.60;99.90
45096;DHT22;30858;51.108;8.068;2022-12-18T00:09:28;-10.60;99.90
45096;DHT22;30858;51.108;8.068;2022-12-18T00:11:54;-10.50;99.90
45096;DHT22;30858;51.108;8.068;2022-12-18T00:14:19;-10.40;99.90
45096;DHT22;30858;51.108;8.068;2022-12-18T00:16:46;-10.40;99.90
45096;DHT22;30858;51.108;8.068;2022-12-18T00:19:13;-10.50;99.90
45096;DHT22;30858;51.108;8.068;2022-12-18T00:21:38;-10.50;99.90
45096;DHT22;30858;51.108;8.068;2022-12-18T00:24:04;-10.50;99.90
45096;DHT22;30858;51.108;8.068;2022-12-18T00:26:32;-10.50;99.90
45096;DHT22;30858;51.108;8.068;2022-12-18T00:29:00;-10.60;99.90
45096;DHT22;30858;51.108;8.068;2022-12-18T00:31:25;-10.60;99.90
45096;DHT22;30858;51.108;8.068;2022-12-18T00:33:53;-10.60;99.90
45096;DHT22;30858;51.108;8.068;2022-12-18T00:36:20;-10.50;99.90
45096;DHT22;30858;51.108;8.068;2022-12-18T00:38:47;-10.50;99.90
45096;DHT22;30858;51.108;8.068;2022-12-18T00:41:14;-10.50;99.90
45096;DHT22;30858;51.108;8.068;2022-12-18T00:44:00;-10.60;99.90
45096;DHT22;30858;51.108;8.068;2022-12-18T00:46:26;-10.60;99.90
45096;DHT22;30858;51.108;8.068;2022-12-18T00:48:51;-10.60;99.90
45096;DHT22;30858;51.108;8.068;2022-12-18T00:51:17;-10.60;99.90
45096;DHT22;30858;51.108;8.068;2022-12-18T00:53:42;-10.70;99.90
45096;DHT22;30858;51.108;8.068;2022-12-18T00:56:08;-10.70;99.90
45096;DHT22;30858;51.108;8.068;2022-12-18T00:58:36;-10.80;99.90
45096;DHT22;30858;51.108;8.068;2022-12-18T01:01:04;-10.80;99.90
45096;DHT22;30858;51.108;8.068;2022-12-18T01:03:30;-10.90;99.90
45096;DHT22;30858;51.108;8.068;2022-12-18T01:05:56;-10.70;99.90
45096;DHT22;30858;51.108;8.068;2022-12-18T01:08:21;-10.70;99.90
45096;DHT22;30858;51.108;8.068;2022-12-18T01:10:50;-10.70;99.90
45096;DHT22;30858;51.108;8.068;2022-12-18T01:13:16;-10.70;99.90
45096;DHT22;30858;51.108;8.068;2022-12-18T01:15:51;-10.70;99.90
45096;DHT22;30858;51.108;8.068;2022-12-18T01:18:16;-10.80;99.90
45096;DHT22;30858;51.108;8.068;2022-12-18T01:20:42;-10.90;99.90
45096;DHT22;30858;51.108;8.068;2022-12-18T01:23:08;-10.80;99.90
45096;DHT22;30858;51.108;8.068;2022-12-18T01:25:35;-10.80;99.90
45096;DHT22;30858;51.108;8.068;2022-12-18T01:28:01;-10.70;99.90
45096;DHT22;30858;51.108;8.068;2022-12-18T01:30:27;-10.70;99.90
45096;DHT22;30858;51.108;8.068;2022-12-18T01:32:52;-10.80;99.90
45096;DHT22;30858;51.108;8.068;2022-12-18T01:35:18;-10.90;99.90
45096;DHT22;30858;51.108;8.068;2022-12-18T01:37:43;-10.90;99.90
45096;DHT22;30858;51.108;8.068;2022-12-18T01:40:09;-10.80;99.90
45096;DHT22;30858;51.108;8.068;2022-12-18T01:42:35;-10.80;99.90
45096;DHT22;30858;51.108;8.068;2022-12-18T01:50:11;-10.80;99.90
45096;DHT22;30858;51.108;8.068;2022-12-18T01:52:38;-10.70;99.90
45096;DHT22;30858;51.108;8.068;2022-12-18T01:55:07;-10.60;99.90
45096;DHT22;30858;51.108;8.068;2022-12-18T01:57:33;-10.60;99.90
45096;DHT22;30858;51.108;8.068;2022-12-18T02:00:03;-10.60;99.90
45096;DHT22;30858;51.108;8.068;2022-12-18T02:02:30;-10.60;99.90
45096;DHT22;30858;51.108;8.068;2022-12-18T02:04:56;-10.70;99.90
45096;DHT22;30858;51.108;8.068;2022-12-18T02:08:11;-10.70;99.90
45096;DHT22;30858;51.108;8.068;2022-12-18T02:13:07;-10.60;99.90
45096;DHT22;30858;51.108;8.068;2022-12-18T02:15:58;-10.70;99.90
45096;DHT22;30858;51.108;8.068;2022-12-18T02:18:28;-10.70;99.90
45096;DHT22;30858;51.108;8.068;2022-12-18T02:21:08;-10.70;99.90
45096;DHT22;30858;51.108;8.068;2022-12-18T02:26:13;-10.70;99.90
45096;DHT22;30858;51.108;8.068;2022-12-18T02:28:55;-10.70;99.90
45096;DHT22;30858;51.108;8.068;2022-12-18T02:31:26;-10.80;99.90
45096;DHT22;30858;51.108;8.068;2022-12-18T02:33:58;-10.90;99.90
45096;DHT22;30858;51.108;8.068;2022-12-18T02:36:27;-11.00;99.90
45096;DHT22;30858;51.108;8.068;2022-12-18T02:38:54;-11.00;99.90
45096;DHT22;30858;51.108;8.068;2022-12-18T02:41:21;-11.10;99.90
45096;DHT22;30858;51.108;8.068;2022-12-18T02:43:58;-11.10;99.90
45096;DHT22;30858;51.108;8.068;2022-12-18T02:46:33;-11.10;99.90
45096;DHT22;30858;51.108;8.068;2022-12-18T02:52:18;-11.20;99.90
45096;DHT22;30858;51.108;8.068;2022-12-18T03:00:41;-11.10;99.90
45096;DHT22;30858;51.108;8.068;2022-12-18T03:06:18;-11.10;99.90
45096;DHT22;30858;51.108;8.068;2022-12-18T03:08:48;-11.20;99.90
45096;DHT22;30858;51.108;8.068;2022-12-18T03:11:15;-11.20;99.90
45096;DHT22;30858;51.108;8.068;2022-12-18T03:13:48;-11.10;99.90
45096;DHT22;30858;51.108;8.068;2022-12-18T03:16:25;-11.10;99.90
45096;DHT22;30858;51.108;8.068;2022-12-18T03:19:00;-11.00;99.90
45096;DHT22;30858;51.108;8.068;2022-12-18T03:21:34;-10.80;99.90
45096;DHT22;30858;51.108;8.068;2022-12-18T03:24:06;-10.80;99.90
45096;DHT22;30858;51.108;8.068;2022-12-18T03:26:32;-10.90;99.90
45096;DHT22;30858;51.108;8.068;2022-12-18T03:29:02;-10.80;99.90
45096;DHT22;30858;51.108;8.068;2022-12-18T03:31:30;-10.90;99.90
45096;DHT22;30858;51.108;8.068;2022-12-18T03:34:03;-10.90;99.90
45096;DHT22;30858;51.108;8.068;2022-12-18T03:36:30;-10.90;99.90
45096;DHT22;30858;51.108;8.068;2022-12-18T03:38:56;-10.80;99.90
45096;DHT22;30858;51.108;8.068;2022-12-18T03:41:33;-10.80;99.90
45096;DHT22;30858;51.108;8.068;2022-12-18T03:46:58;-10.80;99.90
45096;DHT22;30858;51.108;8.068;2022-12-18T03:49:30;-10.90;99.90
45096;DHT22;30858;51.108;8.068;2022-12-18T03:54:42;-10.90;99.90
45096;DHT22;30858;51.108;8.068;2022-12-18T03:57:18;-11.00;99.90
45096;DHT22;30858;51.108;8.068;2022-12-18T03:59:45;-11.00;99.90
45096;DHT22;30858;51.108;8.068;2022-12-18T04:02:12;-10.90;99.90
45096;DHT22;30858;51.108;8.068;2022-12-18T04:04:38;-10.90;99.90
45096;DHT22;30858;51.108;8.068;2022-12-18T04:07:05;-10.90;99.90
45096;DHT22;30858;51.108;8.068;2022-12-18T04:09:33;-10.80;99.90
45096;DHT22;30858;51.108;8.068;2022-12-18T04:11:59;-10.90;99.90
45096;DHT22;30858;51.108;8.068;2022-12-18T04:14:25;-10.90;99.90
45096;DHT22;30858;51.108;8.068;2022-12-18T04:16:51;-10.90;99.90
45096;DHT22;30858;51.108;8.068;2022-12-18T04:19:16;-11.10;99.90
45096;DHT22;30858;51.108;8.068;2022-12-18T04:21:42;-11.00;99.90
45096;DHT22;30858;51.108;8.068;2022-12-18T04:24:07;-11.00;99.90
45096;DHT22;30858;51.108;8.068;2022-12-18T04:26:33;-11.00;99.90
45096;DHT22;30858;51.108;8.068;2022-12-18T04:28:59;-11.00;99.90
45096;DHT22;30858;51.108;8.068;2022-12-18T04:31:25;-11.10;99.90
45096;DHT22;30858;51.108;8.068;2022-12-18T04:33:50;-11.00;99.90
45096;DHT22;30858;51.108;8.068;2022-12-18T04:36:16;-11.00;99.90
45096;DHT22;30858;51.108;8.068;2022-12-18T04:38:41;-11.00;99.90
45096;DHT22;30858;51.108;8.068;2022-12-18T04:41:07;-11.00;99.90
45096;DHT22;30858;51.108;8.068;2022-12-18T04:43:32;-11.00;99.90
45096;DHT22;30858;51.108;8.068;2022-12-18T04:46:16;-11.10;99.90
45096;DHT22;30858;51.108;8.068;2022-12-18T04:48:42;-11.20;99.90
45096;DHT22;30858;51.108;8.068;2022-12-18T04:51:10;-11.20;99.90
45096;DHT22;30858;51.108;8.068;2022-12-18T04:53:35;-11.30;99.90
45096;DHT22;30858;51.108;8.068;2022-12-18T04:56:09;-11.40;99.90
45096;DHT22;30858;51.108;8.068;2022-12-18T04:58:36;-11.30;99.90
45096;DHT22;30858;51.108;8.068;2022-12-18T05:01:03;-11.30;99.90
45096;DHT22;30858;51.108;8.068;2022-12-18T05:03:29;-11.20;99.90
45096;DHT22;30858;51.108;8.068;2022-12-18T05:05:54;-11.20;99.90
45096;DHT22;30858;51.108;8.068;2022-12-18T05:08:20;-11.20;99.90
45096;DHT22;30858;51.108;8.068;2022-12-18T05:10:45;-11.30;99.90
45096;DHT22;30858;51.108;8.068;2022-12-18T05:13:11;-11.30;99.90
45096;DHT22;30858;51.108;8.068;2022-12-18T05:15:36;-11.30;99.90
45096;DHT22;30858;51.108;8.068;2022-12-18T05:18:03;-11.30;99.90
45096;DHT22;30858;51.108;8.068;2022-12-18T05:20:29;-11.40;99.90
45096;DHT22;30858;51.108;8.068;2022-12-18T05:22:55;-11.40;99.90
45096;DHT22;30858;51.108;8.068;2022-12-18T05:25:21;-11.50;99.90
45096;DHT22;30858;51.108;8.068;2022-12-18T05:27:47;-11.50;99.90
45096;DHT22;30858;51.108;8.068;2022-12-18T05:30:13;-11.50;99.90
45096;DHT22;30858;51.108;8.068;2022-12-18T05:32:40;-11.50;99.90
45096;DHT22;30858;51.108;8.068;2022-12-18T05:35:07;-11.60;99.90
45096;DHT22;30858;51.108;8.068;2022-12-18T05:37:33;-11.60;99.90
45096;DHT22;30858;51.108;8.068;2022-12-18T05:39:59;-11.60;99.90
45096;DHT22;30858;51.108;8.068;2022-12-18T05:42:24;-11.60;99.90
45096;DHT22;30858;51.108;8.068;2022-12-18T05:44:50;-11.50;99.90
45096;DHT22;30858;51.108;8.068;2022-12-18T05:47:15;-11.50;99.90
45096;DHT22;30858;51.108;8.068;2022-12-18T05:49:41;-11.60;99.90
45096;DHT22;30858;51.108;8.068;2022-12-18T05:52:06;-11.50;99.90
45096;DHT22;30858;51.108;8.068;2022-12-18T05:54:32;-11.50;99.90
45096;DHT22;30858;51.108;8.068;2022-12-18T05:56:58;-11.50;99.90
45096;DHT22;30858;51.108;8.068;2022-12-18T05:59:24;-11.50;99.90
45096;DHT22;30858;51.108;8.068;2022-12-18T06:01:49;-11.50;99.90
45096;DHT22;30858;51.108;8.068;2022-12-18T06:04:15;-11.50;99.90
45096;DHT22;30858;51.108;8.068;2022-12-18T06:06:41;-11.50;99.90
45096;DHT22;30858;51.108;8.068;2022-12-18T06:09:06;-11.50;99.90
45096;DHT22;30858;51.108;8.068;2022-12-18T06:11:35;-11.40;99.90
45096;DHT22;30858;51.108;8.068;2022-12-18T06:14:01;-11.40;99.90
45096;DHT22;30858;51.108;8.068;2022-12-18T06:16:28;-11.40;99.90
45096;DHT22;30858;51.108;8.068;2022-12-18T06:18:56;-11.40;99.90
45096;DHT22;30858;51.108;8.068;2022-12-18T06:21:22;-11.40;99.90
45096;DHT22;30858;51.108;8.068;2022-12-18T06:23:47;-11.40;99.90
45096;DHT22;30858;51.108;8.068;2022-12-18T06:26:13;-11.40;99.90
45096;DHT22;30858;51.108;8.068;2022-12-18T06:28:39;-11.50;99.90
45096;DHT22;30858;51.108;8.068;2022-12-18T06:31:05;-11.50;99.90
45096;DHT22;30858;51.108;8.068;2022-12-18T06:33:31;-11.50;99.90
45096;DHT22;30858;51.108;8.068;2022-12-18T06:36:05;-11.60;99.90
45096;DHT22;30858;51.108;8.068;2022-12-18T06:38:32;-11.60;99.90
45096;DHT22;30858;51.108;8.068;2022-12-18T06:40:58;-11.60;99.90
45096;DHT22;30858;51.108;8.068;2022-12-18T06:43:23;-11.60;99.90
45096;DHT22;30858;51.108;8.068;2022-12-18T06:45:49;-11.50;99.90
45096;DHT22;30858;51.108;8.068;2022-12-18T06:48:21;-11.40;99.90
45096;DHT22;30858;51.108;8.068;2022-12-18T06:50:47;-11.40;99.90
45096;DHT22;30858;51.108;8.068;2022-12-18T06:53:12;-11.40;99.90
45096;DHT22;30858;51.108;8.068;2022-12-18T06:55:38;-11.40;99.90
45096;DHT22;30858;51.108;8.068;2022-12-18T06:58:03;-11.40;99.90
45096;DHT22;30858;51.108;8.068;2022-12-18T07:00:29;-11.20;99.90
45096;DHT22;30858;51.108;8.068;2022-12-18T07:02:54;-11.10;99.90
45096;DHT22;30858;51.108;8.068;2022-12-18T07:05:20;-11.00;99.90
45096;DHT22;30858;51.108;8.068;2022-12-18T07:07:45;-10.90;99.90
45096;DHT22;30858;51.108;8.068;2022-12-18T07:10:11;-10.90;99.90
45096;DHT22;30858;51.108;8.068;2022-12-18T07:12:36;-10.70;99.90
45096;DHT22;30858;51.108;8.068;2022-12-18T07:15:02;-10.70;99.90
45096;DHT22;30858;51.108;8.068;2022-12-18T07:17:28;-10.70;99.90
45096;DHT22;30858;51.108;8.068;2022-12-18T07:19:54;-10.70;99.90
45096;DHT22;30858;51.108;8.068;2022-12-18T07:22:20;-10.50;99.90
45096;DHT22;30858;51.108;8.068;2022-12-18T07:24:46;-10.50;99.90
45096;DHT22;30858;51.108;8.068;2022-12-18T07:27:11;-10.40;99.90
45096;DHT22;30858;51.108;8.068;2022-12-18T07:29:37;-10.20;99.90
45096;DHT22;30858;51.108;8.068;2022-12-18T07:32:02;-9.90;99.90
45096;DHT22;30858;51.108;8.068;2022-12-18T07:34:28;-9.60;99.90
45096;DHT22;30858;51.108;8.068;2022-12-18T07:36:53;-9.30;99.90
45096;DHT22;30858;51.108;8.068;2022-12-18T07:39:19;-8.80;99.90
45096;DHT22;30858;51.108;8.068;2022-12-18T07:41:44;-8.60;99.90
45096;DHT22;30858;51.108;8.068;2022-12-18T07:44:30;-8.20;99.90
45096;DHT22;30858;51.108;8.068;2022-12-18T07:46:55;-8.00;99.90
45096;DHT22;30858;51.108;8.068;2022-12-18T07:49:21;-7.00;99.90
45096;DHT22;30858;51.108;8.068;2022-12-18T07:51:46;-6.60;99.90
45096;DHT22;30858;51.108;8.068;2022-12-18T07:54:14;-6.10;99.90
45096;DHT22;30858;51.108;8.068;2022-12-18T07:56:40;-6.00;99.90
45096;DHT22;30858;51.108;8.068;2022-12-18T07:59:05;-5.80;99.90
45096;DHT22;30858;51.108;8.068;2022-12-18T08:01:31;-5.60;99.90
45096;DHT22;30858;51.108;8.068;2022-12-18T08:03:57;-5.50;99.90
45096;DHT22;30858;51.108;8.068;2022-12-18T08:06:23;-5.40;99.90
45096;DHT22;30858;51.108;8.068;2022-12-18T08:08:48;-5.20;99.90
45096;DHT22;30858;51.108;8.068;2022-12-18T08:11:14;-5.10;99.90
45096;DHT22;30858;51.108;8.068;2022-12-18T08:13:39;-4.90;99.90
45096;DHT22;30858;51.108;8.068;2022-12-18T08:16:06;-4.80;99.90
45096;DHT22;30858;51.108;8.068;2022-12-18T08:18:33;-4.60;99.90
45096;DHT22;30858;51.108;8.068;2022-12-18T08:21:08;-4.50;99.90
45096;DHT22;30858;51.108;8.068;2022-12-18T08:23:34;-4.30;99.90
45096;DHT22;30858;51.108;8.068;2022-12-18T08:26:00;-4.30;99.90
45096;DHT22;30858;51.108;8.068;2022-12-18T08:28:26;-4.10;99.90
45096;DHT22;30858;51.108;8.068;2022-12-18T08:30:52;-4.00;99.90
45096;DHT22;30858;51.108;8.068;2022-12-18T08:33:17;-3.90;99.90
45096;DHT22;30858;51.108;8.068;2022-12-18T08:35:43;-3.60;99.90
45096;DHT22;30858;51.108;8.068;2022-12-18T08:38:08;-3.60;99.90
45096;DHT22;30858;51.108;8.068;2022-12-18T08:40:34;-3.60;99.90
45096;DHT22;30858;51.108;8.068;2022-12-18T08:42:59;-3.30;99.90
45096;DHT22;30858;51.108;8.068;2022-12-18T08:45:44;-3.30;99.90
45096;DHT22;30858;51.108;8.068;2022-12-18T08:48:09;-3.10;99.90
45096;DHT22;30858;51.108;8.068;2022-12-18T08:50:35;-3.20;99.90
45096;DHT22;30858;51.108;8.068;2022-12-18T08:53:01;-3.10;99.90
45096;DHT22;30858;51.108;8.068;2022-12-18T08:55:26;-3.00;99.90
45096;DHT22;30858;51.108;8.068;2022-12-18T08:57:52;-3.00;99.90
45096;DHT22;30858;51.108;8.068;2022-12-18T09:00:18;-3.00;99.90
45096;DHT22;30858;51.108;8.068;2022-12-18T09:02:43;-3.00;99.90
45096;DHT22;30858;51.108;8.068;2022-12-18T09:05:08;-2.90;99.90
45096;DHT22;30858;51.108;8.068;2022-12-18T09:07:35;-2.70;99.90
45096;DHT22;30858;51.108;8.068;2022-12-18T09:10:00;-2.60;99.90
45096;DHT22;30858;51.108;8.068;2022-12-18T09:12:26;-2.50;99.90
45096;DHT22;30858;51.108;8.068;2022-12-18T09:14:51;-2.50;99.90
45096;DHT22;30858;51.108;8.068;2022-12-18T09:17:17;-2.40;99.90
45096;DHT22;30858;51.108;8.068;2022-12-18T09:19:42;-2.30;99.90
45096;DHT22;30858;51.108;8.068;2022-12-18T09:22:09;-2.20;99.90
45096;DHT22;30858;51.108;8.068;2022-12-18T09:24:35;-2.20;99.90
45096;DHT22;30858;51.108;8.068;2022-12-18T09:27:00;-2.10;99.90
45096;DHT22;30858;51.108;8.068;2022-12-18T09:29:26;-2.00;99.90
45096;DHT22;30858;51.108;8.068;2022-12-18T09:31:51;-1.80;99.90
45096;DHT22;30858;51.108;8.068;2022-12-18T09:36:43;-1.50;99.90
45096;DHT22;30858;51.108;8.068;2022-12-18T09:39:09;-1.30;99.90
45096;DHT22;30858;51.108;8.068;2022-12-18T09:41:47;-1.00;99.90
45096;DHT22;30858;51.108;8.068;2022-12-18T09:49:35;-0.40;99.90
45096;DHT22;30858;51.108;8.068;2022-12-18T09:52:19;-0.40;99.90
45096;DHT22;30858;51.108;8.068;2022-12-18T09:54:52;-0.30;99.90
45096;DHT22;30858;51.108;8.068;2022-12-18T09:57:20;0.00;99.90
45096;DHT22;30858;51.108;8.068;2022-12-18T09:59:53;0.20;99.90
45096;DHT22;30858;51.108;8.068;2022-12-18T10:02:24;0.60;99.90
45096;DHT22;30858;51.108;8.068;2022-12-18T10:05:20;1.00;99.90
45096;DHT22;30858;51.108;8.068;2022-12-18T10:08:10;1.00;99.90
45096;DHT22;30858;51.108;8.068;2022-12-18T10:10:53;1.00;99.90
45096;DHT22;30858;51.108;8.068;2022-12-18T10:13:39;1.30;99.90
45096;DHT22;30858;51.108;8.068;2022-12-18T10:16:16;1.00;99.90
45096;DHT22;30858;51.108;8.068;2022-12-18T10:21:53;0.90;99.90
45096;DHT22;30858;51.108;8.068;2022-12-18T10:24:24;0.80;99.90
45096;DHT22;30858;51.108;8.068;2022-12-18T10:26:53;0.80;99.90
45096;DHT22;30858;51.108;8.068;2022-12-18T10:29:21;0.90;99.90
45096;DHT22;30858;51.108;8.068;2022-12-18T10:31:47;0.90;99.90
45096;DHT22;30858;51.108;8.068;2022-12-18T10:34:13;0.70;99.90
45096;DHT22;30858;51.108;8.068;2022-12-18T10:36:38;0.90;99.90
45096;DHT22;30858;51.108;8.068;2022-12-18T10:39:24;0.70;99.90
45096;DHT22;30858;51.108;8.068;2022-12-18T10:41:51;0.70;99.90
45096;DHT22;30858;51.108;8.068;2022-12-18T10:44:22;0.70;99.90
45096;DHT22;30858;51.108;8.068;2022-12-18T10:47:04;0.80;99.90
45096;DHT22;30858;51.108;8.068;2022-12-18T10:49:33;0.70;99.90
45096;DHT22;30858;51.108;8.068;2022-12-18T10:52:12;0.60;99.90
45096;DHT22;30858;51.108;8.068;2022-12-18T10:54:39;0.60;99.90
45096;DHT22;30858;51.108;8.068;2022-12-18T10:57:37;0.60;99.90
45096;DHT22;30858;51.108;8.068;2022-12-18T11:02:48;0.70;99.90
45096;DHT22;30858;51.108;8.068;2022-12-18T11:05:33;0.80;99.90
45096;DHT22;30858;51.108;8.068;2022-12-18T11:08:00;0.80;99.90
45096;DHT22;30858;51.108;8.068;2022-12-18T11:10:32;0.80;99.90
45096;DHT22;30858;51.108;8.068;2022-12-18T11:13:19;0.80;99.90
45096;DHT22;30858;51.108;8.068;2022-12-18T11:15:46;0.90;99.90
45096;DHT22;30858;51.108;8.068;2022-12-18T11:20:42;0.90;99.90
45096;DHT22;30858;51.108;8.068;2022-12-18T11:23:13;0.80;99.90
45096;DHT22;30858;51.108;8.068;2022-12-18T11:25:39;0.90;99.90
45096;DHT22;30858;51.108;8.068;2022-12-18T11:31:22;0.90;99.90
45096;DHT22;30858;51.108;8.068;2022-12-18T11:36:31;0.90;99.90
45096;DHT22;30858;51.108;8.068;2022-12-18T11:39:00;0.90;99.90
45096;DHT22;30858;51.108;8.068;2022-12-18T11:41:58;0.90;99.90
45096;DHT22;30858;51.108;8.068;2022-12-18T11:50:18;1.00;99.90
45096;DHT22;30858;51.108;8.068;2022-12-18T11:52:44;1.00;99.90
45096;DHT22;30858;51.108;8.068;2022-12-18T11:55:15;1.00;99.90
45096;DHT22;30858;51.108;8.068;2022-12-18T12:00:25;1.10;99.90
45096;DHT22;30858;51.108;8.068;2022-12-18T12:06:03;1.10;99.90
45096;DHT22;30858;51.108;8.068;2022-12-18T12:08:52;1.00;99.90
45096;DHT22;30858;51.108;8.068;2022-12-18T12:17:02;0.90;99.90
45096;DHT22;30858;51.108;8.068;2022-12-18T12:19:51;0.90;99.90
45096;DHT22;30858;51.108;8.068;2022-12-18T12:38:49;0.70;99.90
45096;DHT22;30858;51.108;8.068;2022-12-18T12:41:25;0.70;99.90
45096;DHT22;30858;51.108;8.068;2022-12-18T12:44:29;0.70;99.90
45096;DHT22;30858;51.108;8.068;2022-12-18T12:46:59;0.70;99.90
45096;DHT22;30858;51.108;8.068;2022-12-18T12:49:27;0.70;99.90
45096;DHT22;30858;51.108;8.068;2022-12-18T12:52:03;0.60;99.90
45096;DHT22;30858;51.108;8.068;2022-12-18T12:54:32;0.60;99.90
45096;DHT22;30858;51.108;8.068;2022-12-18T13:00:03;0.60;99.90
45096;DHT22;30858;51.108;8.068;2022-12-18T13:07:51;0.70;99.90
45096;DHT22;30858;51.108;8.068;2022-12-18T13:20:40;0.60;99.90
45096;DHT22;30858;51.108;8.068;2022-12-18T13:23:36;0.50;99.90
45096;DHT22;30858;51.108;8.068;2022-12-18T13:31:05;0.30;99.90
45096;DHT22;30858;51.108;8.068;2022-12-18T13:33:43;0.30;99.90
45096;DHT22;30858;51.108;8.068;2022-12-18T13:36:45;0.30;99.90
45096;DHT22;30858;51.108;8.068;2022-12-18T13:41:43;0.10;99.90
45096;DHT22;30858;51.108;8.068;2022-12-18T13:44:22;0.10;99.90
45096;DHT22;30858;51.108;8.068;2022-12-18T13:46:50;-0.10;99.90
45096;DHT22;30858;51.108;8.068;2022-12-18T13:49:38;-0.10;99.90
45096;DHT22;30858;51.108;8.068;2022-12-18T13:52:34;-0.20;99.90
45096;DHT22;30858;51.108;8.068;2022-12-18T13:55:04;-0.20;99.90
45096;DHT22;30858;51.108;8.068;2022-12-18T13:57:34;-0.20;99.90
45096;DHT22;30858;51.108;8.068;2022-12-18T14:02:45;-0.40;99.90
45096;DHT22;30858;51.108;8.068;2022-12-18T14:07:47;-0.40;99.90
45096;DHT22;30858;51.108;8.068;2022-12-18T14:10:15;-0.40;99.90
45096;DHT22;30858;51.108;8.068;2022-12-18T14:12:45;-0.50;99.90
45096;DHT22;30858;51.108;8.068;2022-12-18T14:20:43;-0.70;99.90
45096;DHT22;30858;51.108;8.068;2022-12-18T14:23:44;-0.80;99.90
45096;DHT22;30858;51.108;8.068;2022-12-18T14:26:28;-0.90;99.90
45096;DHT22;30858;51.108;8.068;2022-12-18T14:28:58;-0.90;99.90
45096;DHT22;30858;51.108;8.068;2022-12-18T14:31:28;-1.00;99.90
45096;DHT22;30858;51.108;8.068;2022-12-18T14:33:54;-1.10;99.90
45096;DHT22;30858;51.108;8.068;2022-12-18T14:36:23;-1.20;99.90
45096;DHT22;30858;51.108;8.068;2022-12-18T14:38:53;-1.30;99.90
45096;DHT22;30858;51.108;8.068;2022-12-18T14:41:20;-1.30;99.90
45096;DHT22;30858;51.108;8.068;2022-12-18T14:43:48;-1.30;99.90
45096;DHT22;30858;51.108;8.068;2022-12-18T14:46:35;-1.30;99.90
45096;DHT22;30858;51.108;8.068;2022-12-18T14:51:52;-1.40;99.90
45096;DHT22;30858;51.108;8.068;2022-12-18T14:54:19;-1.40;99.90
45096;DHT22;30858;51.108;8.068;2022-12-18T14:56:48;-1.40;99.90
45096;DHT22;30858;51.108;8.068;2022-12-18T14:59:22;-1.60;99.90
45096;DHT22;30858;51.108;8.068;2022-12-18T15:04:37;-1.70;99.90
45096;DHT22;30858;51.108;8.068;2022-12-18T15:09:40;-1.70;99.90
45096;DHT22;30858;51.108;8.068;2022-12-18T15:12:22;-1.80;99.90
45096;DHT22;30858;51.108;8.068;2022-12-18T15:14:50;-1.70;99.90
45096;DHT22;30858;51.108;8.068;2022-12-18T15:17:19;-1.70;99.90
45096;DHT22;30858;51.108;8.068;2022-12-18T15:19:46;-1.70;99.90
45096;DHT22;30858;51.108;8.068;2022-12-18T15:22:20;-1.70;99.90
45096;DHT22;30858;51.108;8.068;2022-12-18T15:24:47;-1.70;99.90
45096;DHT22;30858;51.108;8.068;2022-12-18T15:27:33;-1.70;99.90
45096;DHT22;30858;51.108;8.068;2022-12-18T15:30:15;-1.60;99.90
45096;DHT22;30858;51.108;8.068;2022-12-18T15:32:41;-1.50;99.90
45096;DHT22;30858;51.108;8.068;2022-12-18T15:37:39;-1.40;99.90
45096;DHT22;30858;51.108;8.068;2022-12-18T15:40:06;-1.40;99.90
45096;DHT22;30858;51.108;8.068;2022-12-18T15:42:32;-1.40;99.90
45096;DHT22;30858;51.108;8.068;2022-12-18T15:45:16;-1.30;99.90
45096;DHT22;30858;51.108;8.068;2022-12-18T15:47:42;-1.40;99.90
45096;DHT22;30858;51.108;8.068;2022-12-18T15:50:08;-1.30;99.90
45096;DHT22;30858;51.108;8.068;2022-12-18T15:52:40;-1.30;99.90
45096;DHT22;30858;51.108;8.068;2022-12-18T15:55:11;-1.30;99.90
45096;DHT22;30858;51.108;8.068;2022-12-18T15:57:56;-1.40;99.90
45096;DHT22;30858;51.108;8.068;2022-12-18T16:00:22;-1.40;99.90
45096;DHT22;30858;51.108;8.068;2022-12-18T16:02:47;-1.40;99.90
45096;DHT22;30858;51.108;8.068;2022-12-18T16:05:18;-1.50;99.90
45096;DHT22;30858;51.108;8.068;2022-12-18T16:07:44;-1.60;99.90
45096;DHT22;30858;51.108;8.068;2022-12-18T16:10:10;-1.70;99.90
45096;DHT22;30858;51.108;8.068;2022-12-18T16:12:36;-1.70;99.90
45096;DHT22;30858;51.108;8.068;2022-12-18T16:15:03;-1.70;99.90
45096;DHT22;30858;51.108;8.068;2022-12-18T16:17:29;-1.80;99.90
45096;DHT22;30858;51.108;8.068;2022-12-18T16:19:55;-1.80;99.90
45096;DHT22;30858;51.108;8.068;2022-12-18T16:22:23;-1.90;99.90
45096;DHT22;30858;51.108;8.068;2022-12-18T16:24:50;-1.90;99.90
45096;DHT22;30858;51.108;8.068;2022-12-18T16:27:16;-1.90;99.90
45096;DHT22;30858;51.108;8.068;2022-12-18T16:29:41;-1.90;99.90
45096;DHT22;30858;51.108;8.068;2022-12-18T16:32:13;-2.10;99.90
45096;DHT22;30858;51.108;8.068;2022-12-18T16:34:39;-2.10;99.90
45096;DHT22;30858;51.108;8.068;2022-12-18T16:37:07;-2.10;99.90
45096;DHT22;30858;51.108;8.068;2022-12-18T16:39:33;-2.10;99.90
45096;DHT22;30858;51.108;8.068;2022-12-18T16:42:00;-2.10;99.90
45096;DHT22;30858;51.108;8.068;2022-12-18T16:44:26;-2.20;99.90
45096;DHT22;30858;51.108;8.068;2022-12-18T16:46:52;-2.20;99.90
45096;DHT22;30858;51.108;8.068;2022-12-18T16:49:19;-2.20;99.90
45096;DHT22;30858;51.108;8.068;2022-12-18T16:51:47;-2.10;99.90
45096;DHT22;30858;51.108;8.068;2022-12-18T16:54:13;-2.10;99.90
45096;DHT22;30858;51.108;8.068;2022-12-18T16:56:40;-2.10;99.90
45096;DHT22;30858;51.108;8.068;2022-12-18T16:59:07;-2.20;99.90
45096;DHT22;30858;51.108;8.068;2022-12-18T17:01:34;-2.20;99.90
45096;DHT22;30858;51.108;8.068;2022-12-18T17:04:02;-2.10;99.90
45096;DHT22;30858;51.108;8.068;2022-12-18T17:06:31;-2.20;99.90
45096;DHT22;30858;51.108;8.068;2022-12-18T17:08:58;-2.20;99.90
45096;DHT22;30858;51.108;8.068;2022-12-18T17:11:25;-2.30;99.90
45096;DHT22;30858;51.108;8.068;2022-12-18T17:13:51;-2.30;99.90
45096;DHT22;30858;51.108;8.068;2022-12-18T17:16:17;-2.20;99.90
45096;DHT22;30858;51.108;8.068;2022-12-18T17:18:43;-2.20;99.90
45096;DHT22;30858;51.108;8.068;2022-12-18T17:21:09;-2.20;99.90
45096;DHT22;30858;51.108;8.068;2022-12-18T17:23:36;-2.20;99.90
45096;DHT22;30858;51.108;8.068;2022-12-18T17:26:03;-2.10;99.90
45096;DHT22;30858;51.108;8.068;2022-12-18T17:28:31;-2.10;99.90
45096;DHT22;30858;51.108;8.068;2022-12-18T17:30:58;-2.10;99.90
45096;DHT22;30858;51.108;8.068;2022-12-18T17:33:23;-2.10;99.90
45096;DHT22;30858;51.108;8.068;2022-12-18T17:35:49;-2.10;99.90
45096;DHT22;30858;51.108;8.068;2022-12-18T17:38:15;-2.00;99.90
45096;DHT22;30858;51.108;8.068;2022-12-18T17:40:41;-2.00;99.90
45096;DHT22;30858;51.108;8.068;2022-12-18T17:43:08;-1.90;99.90
45096;DHT22;30858;51.108;8.068;2022-12-18T17:45:37;-2.00;99.90
45096;DHT22;30858;51.108;8.068;2022-12-18T17:48:04;-1.90;99.90
45096;DHT22;30858;51.108;8.068;2022-12-18T17:50:32;-1.90;99.90
45096;DHT22;30858;51.108;8.068;2022-12-18T17:52:58;-1.90;99.90